createdAt,value
2022-10-18T00:18:48.571Z,29.60
2022-10-18T00:33:53.981Z,31.83
2022-10-18T00:48:58.661Z,32.50
2022-10-18T01:04:01.039Z,29.20
2022-10-18T01:19:30.485Z,26.15
2022-10-18T01:34:36.302Z,26.55
2022-10-18T01:49:38.222Z,23.10
2022-10-18T02:04:49.127Z,25.83
2022-10-18T02:19:54.328Z,22.83
2022-10-18T02:35:01.070Z,22.15
2022-10-18T02:50:02.972Z,21.65
2022-10-18T03:05:05.229Z,22.02
2022-10-18T03:20:07.750Z,21.50
2022-10-18T03:35:10.022Z,18.15
2022-10-18T03:50:11.954Z,18.60
2022-10-18T04:05:14.392Z,23.55
2022-10-18T04:20:16.739Z,20.33
2022-10-18T04:35:19.988Z,21.00
2022-10-18T04:50:21.859Z,22.50
2022-10-18T05:05:29.638Z,21.83
2022-10-18T05:20:35.032Z,21.98
2022-10-18T05:35:36.930Z,22.50
2022-10-18T05:50:40.366Z,20.92
2022-10-18T06:05:42.457Z,18.70
2022-10-18T06:20:44.381Z,26.67
2022-10-18T06:36:00.901Z,18.25
2022-10-18T06:51:04.963Z,18.02
2022-10-18T07:06:08.579Z,22.45
2022-10-18T07:21:13.762Z,21.17
2022-10-18T07:36:15.872Z,24.45
2022-10-18T07:51:19.342Z,26.35
2022-10-18T08:06:23.223Z,24.73
2022-10-18T08:21:25.310Z,24.88
2022-10-18T08:36:27.203Z,24.85
2022-10-18T08:51:45.482Z,30.90
2022-10-18T09:06:53.023Z,27.20
2022-10-18T09:22:01.954Z,30.80
2022-10-18T09:37:08.823Z,32.10
2022-10-18T09:52:19.062Z,34.00
2022-10-18T10:07:28.739Z,27.92
2022-10-18T10:22:38.527Z,41.88
2022-10-18T10:37:40.400Z,27.88
2022-10-18T10:52:47.890Z,44.85
2022-10-18T11:07:54.822Z,31.65
2022-10-18T11:22:56.693Z,33.22
2022-10-18T11:38:12.681Z,29.55
2022-10-18T11:53:29.944Z,31.77
2022-10-18T12:08:35.121Z,37.58
2022-10-18T12:23:51.383Z,32.30
2022-10-18T12:39:02.970Z,31.75
2022-10-18T12:54:17.023Z,40.88
2022-10-18T13:09:21.871Z,41.35
2022-10-18T13:24:44.851Z,49.33
2022-10-18T13:39:46.971Z,42.90
2022-10-18T13:55:37.482Z,54.10
2022-10-18T14:11:03.633Z,64.85
2022-10-18T14:26:21.262Z,58.22
2022-10-18T14:41:49.843Z,65.88
2022-10-18T15:12:13.162Z,62.50
2022-10-18T15:27:52.433Z,69.53
2022-10-18T15:43:06.063Z,76.45
2022-10-18T15:58:56.322Z,64.97
2022-10-18T16:14:00.693Z,16.13
2022-10-18T16:29:04.757Z,5.38
2022-10-18T16:44:06.790Z,4.95
2022-10-18T16:59:20.951Z,6.65
2022-10-18T17:14:22.881Z,6.55
2022-10-18T17:29:24.806Z,54.63
2022-10-18T17:44:26.763Z,9.70
2022-10-18T17:59:29.141Z,8.98
2022-10-18T18:14:31.413Z,15.07
2022-10-18T18:29:33.451Z,18.63
2022-10-18T18:44:35.674Z,15.23
2022-10-18T18:59:37.593Z,16.38
2022-10-18T19:14:39.664Z,17.00
2022-10-18T19:29:41.943Z,21.27
2022-10-18T19:44:44.024Z,21.00
2022-10-18T19:59:45.984Z,20.10
2022-10-18T20:14:47.942Z,21.02
2022-10-18T20:29:50.104Z,18.08
2022-10-18T20:44:52.177Z,19.88
2022-10-18T20:59:54.197Z,20.38
2022-10-18T21:14:56.137Z,25.90
2022-10-18T21:29:58.095Z,22.65
2022-10-18T21:45:00.057Z,31.25
2022-10-18T22:00:02.716Z,27.88
2022-10-18T22:15:05.015Z,30.17
2022-10-18T22:30:07.335Z,30.02
2022-10-18T22:45:09.497Z,26.63
2022-10-18T23:00:12.296Z,23.85
2022-10-18T23:15:14.295Z,14.98
2022-10-18T23:30:18.075Z,19.27
2022-10-18T23:45:20.035Z,20.23
